NORTHEAST SUFFOLK  -  Special Weather Statement Special Weather Statement        NORTHERN NASSAU  -  Special Weather Statement Special Weather Statement        NORTHWEST SUFFOLK  -  Special Weather Statement Special Weather Statement        SOUTHEAST SUFFOLK  -  Special Weather Statement Special Weather Statement        SOUTHERN NASSAU  -  Special Weather Statement Special Weather Statement        SOUTHWEST SUFFOLK  -  Special Weather Statement Special Weather Statement      

Active alerts

Northern Nassau
  Details for Northern Nassau Special Weather Statement
Southern Nassau
  Details for Southern Nassau Special Weather Statement
Northwest Suffolk
  Details for Northwest Suffolk Special Weather Statement
Southwest Suffolk
  Details for Southwest Suffolk Special Weather Statement
Northeast Suffolk
  Details for Northeast Suffolk Special Weather Statement
Southeast Suffolk
  Details for Southeast Suffolk Special Weather Statement


WXM80 ListenWXM80 Stop

You find our weather info also at:

UK Metoffice

WeatherCloud

Weather Underground

Northeastern Weather Network

AWEKAS

Citizen Weather Observer Program (CWOP)

HAMweather, WeatherForYou, PWS Weather


Weather Underground History page Text

Daily Summary for October 9, 2017 Units:  Both    English   Metric
« Previous Day
Next Day »
Daily Weekly Monthly Yearly Custom
  High: Low: Average:
Temperature: 74.7 °F /  23.7 °C 72.1 °F /  22.3 °C 73.1 °F /  22.8 °C
Dew Point: 73.3 °F /  22.9 °C 70.6 °F /  21.4 °C 71.9 °F /  22.2 °C
Humidity: 97 % 93 % 96 %
Wind Speed: 7.9 mph /  12.7 km/h - 2.1 mph /  3.4 km/h
Wind Gust: 20.0 mph /  32.2 km/h - -
Wind:- - SSW
Pressure: 29.95 in /  1014.1 hPa 29.52 in /  999.5 hPa -
Precipitation: 0.25 in /  6.35 mm    
Historical Graphs
 
 
Tabular Data for October 9, 2017
Time Temperature Dew Point Pressure Wind Wind Speed Wind Gust Humidity Rainfall Rate (Hourly)
00:03 73.8 °F /  23.2 °C 72.3 °F /  22.4 °C 29.94 in /  1013.8 hPa WSW 0.1 mph /  0.2 km/h 1.2 mph /  1.9 km/h 95 % 0.00 in /  0 mm
00:08 73.7 °F /  23.2 °C 72.2 °F /  22.3 °C 29.94 in /  1013.8 hPa Calm   1.2 mph /  1.9 km/h 95 % 0.00 in /  0 mm
00:13 73.6 °F /  23.1 °C 72.1 °F /  22.3 °C 29.94 in /  1013.8 hPa WSW 0.2 mph /  0.3 km/h 1.2 mph /  1.9 km/h 95 % 0.00 in /  0 mm
00:18 73.5 °F /  23.1 °C 72.0 °F /  22.2 °C 29.95 in /  1014.1 hPa SE 0.4 mph /  0.6 km/h 1.2 mph /  1.9 km/h 95 % 0.00 in /  0 mm
00:23 73.5 °F /  23.1 °C 72.0 °F /  22.2 °C 29.95 in /  1014.1 hPa SSW 0.9 mph /  1.4 km/h 3.5 mph /  5.6 km/h 95 % 0.00 in /  0 mm
00:28 73.5 °F /  23.1 °C 72.0 °F /  22.2 °C 29.95 in /  1014.1 hPa SSW 0.7 mph /  1.1 km/h 3.5 mph /  5.6 km/h 95 % 0.00 in /  0 mm
00:33 73.4 °F /  23 °C 71.9 °F /  22.2 °C 29.95 in /  1014.1 hPa SSW 0.1 mph /  0.2 km/h 2.3 mph /  3.7 km/h 95 % 0.00 in /  0 mm
00:38 73.3 °F /  22.9 °C 71.8 °F /  22.1 °C 29.95 in /  1014.1 hPa Calm   1.2 mph /  1.9 km/h 95 % 0.00 in /  0 mm
00:43 73.2 °F /  22.9 °C 71.7 °F /  22.1 °C 29.95 in /  1014.1 hPa WSW 0.2 mph /  0.3 km/h 2.0 mph /  3.2 km/h 95 % 0.00 in /  0 mm
00:48 73.2 °F /  22.9 °C 71.7 °F /  22.1 °C 29.95 in /  1014.1 hPa SW 0.1 mph /  0.2 km/h 1.2 mph /  1.9 km/h 95 % 0.00 in /  0 mm
00:53 73.1 °F /  22.8 °C 71.6 °F /  22 °C 29.95 in /  1014.1 hPa Calm   1.2 mph /  1.9 km/h 95 % 0.00 in /  0 mm
00:58 73.1 °F /  22.8 °C 71.6 °F /  22 °C 29.95 in /  1014.1 hPa Calm   1.2 mph /  1.9 km/h 95 % 0.00 in /  0 mm
01:03 73.0 °F /  22.8 °C 71.5 °F /  21.9 °C 29.94 in /  1013.8 hPa WSW 1.2 mph /  1.9 km/h 3.5 mph /  5.6 km/h 95 % 0.00 in /  0 mm
01:08 73.0 °F /  22.8 °C 71.5 °F /  21.9 °C 29.95 in /  1014.1 hPa WSW 1.8 mph /  2.9 km/h 3.5 mph /  5.6 km/h 95 % 0.00 in /  0 mm
01:13 73.1 °F /  22.8 °C 71.9 °F /  22.2 °C 29.94 in /  1013.8 hPa SSW 1.8 mph /  2.9 km/h 3.5 mph /  5.6 km/h 96 % 0.00 in /  0 mm
01:18 73.1 °F /  22.8 °C 71.9 °F /  22.2 °C 29.94 in /  1013.8 hPa South 0.4 mph /  0.6 km/h 1.2 mph /  1.9 km/h 96 % 0.00 in /  0 mm
01:24 73.1 °F /  22.8 °C 71.9 °F /  22.2 °C 29.94 in /  1013.8 hPa SW 1.2 mph /  1.9 km/h 2.3 mph /  3.7 km/h 96 % 0.00 in /  0 mm
01:29 73.1 °F /  22.8 °C 71.9 °F /  22.2 °C 29.94 in /  1013.8 hPa SW 0.1 mph /  0.2 km/h 1.2 mph /  1.9 km/h 96 % 0.00 in /  0 mm
01:34 73.1 °F /  22.8 °C 71.9 °F /  22.2 °C 29.94 in /  1013.8 hPa Calm     96 % 0.00 in /  0 mm
01:44 73.1 °F /  22.8 °C 71.9 °F /  22.2 °C 29.94 in /  1013.8 hPa Calm   1.2 mph /  1.9 km/h 96 % 0.00 in /  0 mm
01:49 73.1 °F /  22.8 °C 71.9 °F /  22.2 °C 29.94 in /  1013.8 hPa WSW 0.3 mph /  0.5 km/h 1.2 mph /  1.9 km/h 96 % 0.00 in /  0 mm
01:54 73.1 °F /  22.8 °C 71.9 °F /  22.2 °C 29.94 in /  1013.8 hPa WSW 0.1 mph /  0.2 km/h 1.2 mph /  1.9 km/h 96 % 0.00 in /  0 mm
01:59 73.1 °F /  22.8 °C 71.9 °F /  22.2 °C 29.94 in /  1013.8 hPa WSW 0.4 mph /  0.6 km/h 2.3 mph /  3.7 km/h 96 % 0.00 in /  0 mm
02:09 73.1 °F /  22.8 °C 71.9 °F /  22.2 °C 29.94 in /  1013.8 hPa Calm     96 % 0.00 in /  0 mm
02:14 73.1 °F /  22.8 °C 71.9 °F /  22.2 °C 29.94 in /  1013.8 hPa West 0.5 mph /  0.8 km/h 3.5 mph /  5.6 km/h 96 % 0.00 in /  0 mm
02:19 73.1 °F /  22.8 °C 71.9 °F /  22.2 °C 29.94 in /  1013.8 hPa SSE 0.4 mph /  0.6 km/h 2.3 mph /  3.7 km/h 96 % 0.00 in /  0 mm
02:24 73.1 °F /  22.8 °C 71.9 °F /  22.2 °C 29.94 in /  1013.8 hPa Calm   1.2 mph /  1.9 km/h 96 % 0.00 in /  0 mm
02:29 73.1 °F /  22.8 °C 71.9 °F /  22.2 °C 29.94 in /  1013.8 hPa Calm   2.3 mph /  3.7 km/h 96 % 0.00 in /  0 mm
02:34 73.0 °F /  22.8 °C 71.8 °F /  22.1 °C 29.93 in /  1013.4 hPa SSE 0.2 mph /  0.3 km/h 3.5 mph /  5.6 km/h 96 % 0.00 in /  0 mm
02:39 73.0 °F /  22.8 °C 71.8 °F /  22.1 °C 29.94 in /  1013.8 hPa Calm   2.3 mph /  3.7 km/h 96 % 0.00 in /  0 mm
02:44 73.0 °F /  22.8 °C 71.8 °F /  22.1 °C 29.94 in /  1013.8 hPa SSE 0.1 mph /  0.2 km/h 1.2 mph /  1.9 km/h 96 % 0.00 in /  0 mm
02:50 72.9 °F /  22.7 °C 71.7 °F /  22.1 °C 29.93 in /  1013.4 hPa SSE 0.1 mph /  0.2 km/h 1.2 mph /  1.9 km/h 96 % 0.00 in /  0 mm
02:55 72.9 °F /  22.7 °C 71.7 °F /  22.1 °C 29.87 in /  1011.4 hPa SSE 0.3 mph /  0.5 km/h 1.2 mph /  1.9 km/h 96 % 0.00 in /  0 mm
03:00 72.9 °F /  22.7 °C 71.7 °F /  22.1 °C 29.73 in /  1006.7 hPa Calm   1.2 mph /  1.9 km/h 96 % 0.00 in /  0 mm
03:05 72.8 °F /  22.7 °C 71.6 °F /  22 °C 29.84 in /  1010.4 hPa Calm   1.2 mph /  1.9 km/h 96 % 0.00 in /  0 mm
03:10 72.8 °F /  22.7 °C 71.6 °F /  22 °C 29.83 in /  1010 hPa Calm     96 % 0.00 in /  0 mm
03:15 72.7 °F /  22.6 °C 71.5 °F /  21.9 °C 29.87 in /  1011.4 hPa SSE 0.2 mph /  0.3 km/h 1.2 mph /  1.9 km/h 96 % 0.00 in /  0 mm
03:20 72.7 °F /  22.6 °C 71.5 °F /  21.9 °C 29.86 in /  1011.1 hPa SE 0.2 mph /  0.3 km/h 2.3 mph /  3.7 km/h 96 % 0.00 in /  0 mm
03:25 72.6 °F /  22.6 °C 71.4 °F /  21.9 °C 29.87 in /  1011.4 hPa Calm   2.3 mph /  3.7 km/h 96 % 0.00 in /  0 mm
03:30 72.5 °F /  22.5 °C 71.3 °F /  21.8 °C 29.87 in /  1011.4 hPa SSE 0.4 mph /  0.6 km/h 2.3 mph /  3.7 km/h 96 % 0.00 in /  0 mm
03:35 72.5 °F /  22.5 °C 71.3 °F /  21.8 °C 29.89 in /  1012.1 hPa South 0.8 mph /  1.3 km/h 3.5 mph /  5.6 km/h 96 % 0.00 in /  0 mm
03:40 72.4 °F /  22.4 °C 71.2 °F /  21.8 °C 29.86 in /  1011.1 hPa SSW 0.4 mph /  0.6 km/h 2.3 mph /  3.7 km/h 96 % 0.00 in /  0 mm
03:45 72.3 °F /  22.4 °C 70.8 °F /  21.6 °C 29.86 in /  1011.1 hPa SE 0.6 mph /  1 km/h 2.3 mph /  3.7 km/h 95 % 0.00 in /  0 mm
03:50 72.3 °F /  22.4 °C 70.8 °F /  21.6 °C 29.82 in /  1009.7 hPa SSW 0.5 mph /  0.8 km/h 1.2 mph /  1.9 km/h 95 % 0.00 in /  0 mm
03:55 72.2 °F /  22.3 °C 71.0 °F /  21.7 °C 29.83 in /  1010 hPa SSW 0.3 mph /  0.5 km/h 2.3 mph /  3.7 km/h 96 % 0.00 in /  0 mm
03:56 72.2 °F /  22.3 °C 71.0 °F /  21.7 °C 29.83 in /  1010 hPa SE 1.1 mph /  1.8 km/h 3.0 mph /  4.8 km/h 96 % 0.00 in /  0 mm
04:01 72.2 °F /  22.3 °C 70.7 °F /  21.5 °C 29.84 in /  1010.4 hPa SSW 2.8 mph /  4.5 km/h 3.5 mph /  5.6 km/h 95 % 0.00 in /  0 mm
04:06 72.1 °F /  22.3 °C 70.6 °F /  21.4 °C 29.89 in /  1012.1 hPa WSW 0.9 mph /  1.4 km/h 3.5 mph /  5.6 km/h 95 % 0.00 in /  0 mm
04:11 72.1 °F /  22.3 °C 70.6 °F /  21.4 °C 29.86 in /  1011.1 hPa SSW 0.4 mph /  0.6 km/h 3.5 mph /  5.6 km/h 95 % 0.00 in /  0 mm
04:16 72.1 °F /  22.3 °C 70.6 °F /  21.4 °C 29.84 in /  1010.4 hPa SSE 0.3 mph /  0.5 km/h 2.3 mph /  3.7 km/h 95 % 0.00 in /  0 mm
04:21 72.1 °F /  22.3 °C 70.6 °F /  21.4 °C 29.85 in /  1010.7 hPa SSW 1.4 mph /  2.3 km/h 3.5 mph /  5.6 km/h 95 % 0.00 in /  0 mm
04:22 72.1 °F /  22.3 °C 70.6 °F /  21.4 °C 29.85 in /  1010.7 hPa SSW 1.5 mph /  2.4 km/h 3.5 mph /  5.6 km/h 95 % 0.00 in /  0 mm
04:27 72.1 °F /  22.3 °C 70.6 °F /  21.4 °C 29.86 in /  1011.1 hPa SSW 0.6 mph /  1 km/h 2.3 mph /  3.7 km/h 95 % 0.00 in /  0 mm
04:32 72.1 °F /  22.3 °C 70.6 °F /  21.4 °C 29.81 in /  1009.4 hPa SE 0.1 mph /  0.2 km/h 2.3 mph /  3.7 km/h 95 % 0.00 in /  0 mm
04:37 72.1 °F /  22.3 °C 70.6 °F /  21.4 °C 29.86 in /  1011.1 hPa South 0.2 mph /  0.3 km/h 3.5 mph /  5.6 km/h 95 % 0.00 in /  0 mm
04:42 72.1 °F /  22.3 °C 70.6 °F /  21.4 °C 29.81 in /  1009.4 hPa SE 0.6 mph /  1 km/h 3.5 mph /  5.6 km/h 95 % 0.00 in /  0 mm
04:47 72.1 °F /  22.3 °C 70.6 °F /  21.4 °C 29.81 in /  1009.4 hPa SE 0.1 mph /  0.2 km/h 3.5 mph /  5.6 km/h 95 % 0.00 in /  0 mm
04:52 72.1 °F /  22.3 °C 70.6 °F /  21.4 °C 29.75 in /  1007.3 hPa South 0.9 mph /  1.4 km/h 3.5 mph /  5.6 km/h 95 % 0.00 in /  0 mm
04:57 72.2 °F /  22.3 °C 70.7 °F /  21.5 °C 29.73 in /  1006.7 hPa South 1.3 mph /  2.1 km/h 3.5 mph /  5.6 km/h 95 % 0.00 in /  0 mm
05:02 72.2 °F /  22.3 °C 70.7 °F /  21.5 °C 29.77 in /  1008 hPa South 1.7 mph /  2.7 km/h 4.6 mph /  7.4 km/h 95 % 0.01 in /  0.25 mm
05:07 72.2 °F /  22.3 °C 71.0 °F /  21.7 °C 29.77 in /  1008 hPa SE 0.4 mph /  0.6 km/h 3.5 mph /  5.6 km/h 96 % 0.01 in /  0.25 mm
05:12 72.2 °F /  22.3 °C 71.0 °F /  21.7 °C 29.72 in /  1006.3 hPa SW 0.3 mph /  0.5 km/h 2.3 mph /  3.7 km/h 96 % 0.01 in /  0.25 mm
05:17 72.2 °F /  22.3 °C 71.0 °F /  21.7 °C 29.69 in /  1005.3 hPa SSE 1.4 mph /  2.3 km/h 4.6 mph /  7.4 km/h 96 % 0.01 in /  0.25 mm
05:22 72.2 °F /  22.3 °C 71.0 °F /  21.7 °C 29.72 in /  1006.3 hPa SSW 1.0 mph /  1.6 km/h 4.0 mph /  6.4 km/h 96 % 0.01 in /  0.25 mm
05:27 72.2 °F /  22.3 °C 71.0 °F /  21.7 °C 29.77 in /  1008 hPa SSW 0.9 mph /  1.4 km/h 3.5 mph /  5.6 km/h 96 % 0.01 in /  0.25 mm
05:32 72.2 °F /  22.3 °C 71.0 °F /  21.7 °C 29.83 in /  1010 hPa SSW 1.3 mph /  2.1 km/h 3.5 mph /  5.6 km/h 96 % 0.01 in /  0.25 mm
05:37 72.1 °F /  22.3 °C 70.9 °F /  21.6 °C 29.76 in /  1007.7 hPa South 2.7 mph /  4.3 km/h 3.5 mph /  5.6 km/h 96 % 0.01 in /  0.25 mm
05:42 72.1 °F /  22.3 °C 70.9 °F /  21.6 °C 29.83 in /  1010 hPa SSW 0.5 mph /  0.8 km/h 1.2 mph /  1.9 km/h 96 % 0.01 in /  0.25 mm
05:47 72.1 °F /  22.3 °C 70.9 °F /  21.6 °C 29.80 in /  1009 hPa SSE 0.4 mph /  0.6 km/h 2.3 mph /  3.7 km/h 96 % 0.01 in /  0.25 mm
05:52 72.1 °F /  22.3 °C 70.9 °F /  21.6 °C 29.81 in /  1009.4 hPa SSE 0.5 mph /  0.8 km/h 5.8 mph /  9.3 km/h 96 % 0.01 in /  0.25 mm
05:57 72.1 °F /  22.3 °C 70.9 °F /  21.6 °C 29.75 in /  1007.3 hPa SSE 1.6 mph /  2.6 km/h 3.5 mph /  5.6 km/h 96 % 0.01 in /  0.25 mm
06:02 72.1 °F /  22.3 °C 70.9 °F /  21.6 °C 29.69 in /  1005.3 hPa South 1.3 mph /  2.1 km/h 1.3 mph /  2.1 km/h 96 % 0.00 in /  0 mm
06:03 72.1 °F /  22.3 °C 70.9 °F /  21.6 °C 29.68 in /  1005 hPa South 2.2 mph /  3.5 km/h 3.5 mph /  5.6 km/h 96 % 0.00 in /  0 mm
06:08 72.1 °F /  22.3 °C 70.9 °F /  21.6 °C 29.71 in /  1006 hPa South 0.2 mph /  0.3 km/h 1.0 mph /  1.6 km/h 96 % 0.00 in /  0 mm
06:13 72.1 °F /  22.3 °C 70.9 °F /  21.6 °C 29.79 in /  1008.7 hPa SE 1.9 mph /  3.1 km/h 4.0 mph /  6.4 km/h 96 % 0.00 in /  0 mm
06:18 72.1 °F /  22.3 °C 70.9 °F /  21.6 °C 29.81 in /  1009.4 hPa SSE 1.2 mph /  1.9 km/h 3.0 mph /  4.8 km/h 96 % 0.00 in /  0 mm
06:23 72.1 °F /  22.3 °C 70.9 °F /  21.6 °C 29.83 in /  1010 hPa SSW 1.8 mph /  2.9 km/h 4.6 mph /  7.4 km/h 96 % 0.00 in /  0 mm
06:29 72.1 °F /  22.3 °C 70.9 °F /  21.6 °C 29.82 in /  1009.7 hPa SSW 1.4 mph /  2.3 km/h 4.6 mph /  7.4 km/h 96 % 0.00 in /  0 mm
06:34 72.1 °F /  22.3 °C 70.9 °F /  21.6 °C 29.83 in /  1010 hPa SE 1.2 mph /  1.9 km/h 4.6 mph /  7.4 km/h 96 % 0.00 in /  0 mm
06:39 72.1 °F /  22.3 °C 70.9 °F /  21.6 °C 29.85 in /  1010.7 hPa South 0.2 mph /  0.3 km/h 5.8 mph /  9.3 km/h 96 % 0.00 in /  0 mm
06:44 72.1 °F /  22.3 °C 70.9 °F /  21.6 °C 29.82 in /  1009.7 hPa SSW 0.7 mph /  1.1 km/h 3.5 mph /  5.6 km/h 96 % 0.00 in /  0 mm
06:49 72.1 °F /  22.3 °C 70.9 °F /  21.6 °C 29.82 in /  1009.7 hPa SW 2.5 mph /  4 km/h 4.6 mph /  7.4 km/h 96 % 0.00 in /  0 mm
06:54 72.1 °F /  22.3 °C 70.9 °F /  21.6 °C 29.84 in /  1010.4 hPa SSW 0.2 mph /  0.3 km/h 2.3 mph /  3.7 km/h 96 % 0.00 in /  0 mm
06:59 72.1 °F /  22.3 °C 70.9 °F /  21.6 °C 29.83 in /  1010 hPa SSW 2.2 mph /  3.5 km/h 3.5 mph /  5.6 km/h 96 % 0.00 in /  0 mm
07:04 72.1 °F /  22.3 °C 70.9 °F /  21.6 °C 29.84 in /  1010.4 hPa SE 0.7 mph /  1.1 km/h 2.3 mph /  3.7 km/h 96 % 0.00 in /  0 mm
07:09 72.1 °F /  22.3 °C 70.9 °F /  21.6 °C 29.80 in /  1009 hPa WSW 2.0 mph /  3.2 km/h 3.5 mph /  5.6 km/h 96 % 0.00 in /  0 mm
07:14 72.1 °F /  22.3 °C 70.9 °F /  21.6 °C 29.82 in /  1009.7 hPa SSE 0.3 mph /  0.5 km/h 2.3 mph /  3.7 km/h 96 % 0.00 in /  0 mm
07:19 72.2 °F /  22.3 °C 71.0 °F /  21.7 °C 29.82 in /  1009.7 hPa SSE 4.2 mph /  6.8 km/h 7.0 mph /  11.3 km/h 96 % 0.00 in /  0 mm
07:24 72.2 °F /  22.3 °C 71.0 °F /  21.7 °C 29.84 in /  1010.4 hPa SSW 6.1 mph /  9.8 km/h 6.1 mph /  9.8 km/h 96 % 0.00 in /  0 mm
07:30 72.2 °F /  22.3 °C 71.0 °F /  21.7 °C 29.87 in /  1011.4 hPa SSW 1.8 mph /  2.9 km/h 3.5 mph /  5.6 km/h 96 % 0.00 in /  0 mm
07:35 72.3 °F /  22.4 °C 71.1 °F /  21.7 °C 29.80 in /  1009 hPa SSE 1.0 mph /  1.6 km/h 3.5 mph /  5.6 km/h 96 % 0.00 in /  0 mm
07:39 72.4 °F /  22.4 °C 71.2 °F /  21.8 °C 29.76 in /  1007.7 hPa SSE 0.2 mph /  0.3 km/h 3.5 mph /  5.6 km/h 96 % 0.00 in /  0 mm
07:45 72.4 °F /  22.4 °C 71.2 °F /  21.8 °C 29.77 in /  1008 hPa South 0.6 mph /  1 km/h 1.2 mph /  1.9 km/h 96 % 0.00 in /  0 mm
07:50 72.5 °F /  22.5 °C 71.3 °F /  21.8 °C 29.83 in /  1010 hPa SSW 1.3 mph /  2.1 km/h 5.8 mph /  9.3 km/h 96 % 0.00 in /  0 mm
07:55 72.5 °F /  22.5 °C 71.3 °F /  21.8 °C 29.82 in /  1009.7 hPa South 2.0 mph /  3.2 km/h 4.6 mph /  7.4 km/h 96 % 0.00 in /  0 mm
08:00 72.6 °F /  22.6 °C 71.4 °F /  21.9 °C 29.62 in /  1002.9 hPa SSW 2.2 mph /  3.5 km/h 5.8 mph /  9.3 km/h 96 % 0.00 in /  0 mm
08:05 72.6 °F /  22.6 °C 71.4 °F /  21.9 °C 29.84 in /  1010.4 hPa SW 1.5 mph /  2.4 km/h 3.5 mph /  5.6 km/h 96 % 0.00 in /  0 mm
08:10 72.7 °F /  22.6 °C 71.5 °F /  21.9 °C 29.77 in /  1008 hPa WSW 0.2 mph /  0.3 km/h 2.3 mph /  3.7 km/h 96 % 0.00 in /  0 mm
08:15 72.7 °F /  22.6 °C 71.5 °F /  21.9 °C 29.81 in /  1009.4 hPa SSW 2.8 mph /  4.5 km/h 6.9 mph /  11.1 km/h 96 % 0.00 in /  0 mm
08:20 72.8 °F /  22.7 °C 71.6 °F /  22 °C 29.68 in /  1005 hPa SW 2.0 mph /  3.2 km/h 3.5 mph /  5.6 km/h 96 % 0.00 in /  0 mm
08:25 72.9 °F /  22.7 °C 71.7 °F /  22.1 °C 29.83 in /  1010 hPa SSE 3.1 mph /  5 km/h 6.0 mph /  9.7 km/h 96 % 0.00 in /  0 mm
08:30 73.0 °F /  22.8 °C 71.8 °F /  22.1 °C 29.84 in /  1010.4 hPa SSW 2.1 mph /  3.4 km/h 10.4 mph /  16.7 km/h 96 % 0.00 in /  0 mm
08:35 73.1 °F /  22.8 °C 71.9 °F /  22.2 °C 29.72 in /  1006.3 hPa SE 0.3 mph /  0.5 km/h 2.3 mph /  3.7 km/h 96 % 0.00 in /  0 mm
08:40 73.1 °F /  22.8 °C 71.9 °F /  22.2 °C 29.76 in /  1007.7 hPa WSW 0.3 mph /  0.5 km/h 1.2 mph /  1.9 km/h 96 % 0.00 in /  0 mm
08:45 73.2 °F /  22.9 °C 72.0 °F /  22.2 °C 29.87 in /  1011.4 hPa SSW 1.0 mph /  1.6 km/h 5.0 mph /  8 km/h 96 % 0.00 in /  0 mm
08:50 73.3 °F /  22.9 °C 72.1 °F /  22.3 °C 29.71 in /  1006 hPa SSW 1.9 mph /  3.1 km/h 4.6 mph /  7.4 km/h 96 % 0.00 in /  0 mm
08:55 73.4 °F /  23 °C 72.2 °F /  22.3 °C 29.77 in /  1008 hPa SE 4.0 mph /  6.4 km/h 9.0 mph /  14.5 km/h 96 % 0.00 in /  0 mm
09:00 73.4 °F /  23 °C 72.2 °F /  22.3 °C 29.83 in /  1010 hPa SW 2.8 mph /  4.5 km/h 6.9 mph /  11.1 km/h 96 % 0.00 in /  0 mm
09:05 73.5 °F /  23.1 °C 72.3 °F /  22.4 °C 29.75 in /  1007.3 hPa SW 5.1 mph /  8.2 km/h 8.1 mph /  13 km/h 96 % 0.00 in /  0 mm
09:10 73.5 °F /  23.1 °C 72.3 °F /  22.4 °C 29.89 in /  1012.1 hPa SSW 2.0 mph /  3.2 km/h 5.8 mph /  9.3 km/h 96 % 0.00 in /  0 mm
09:15 73.5 °F /  23.1 °C 72.3 °F /  22.4 °C 29.87 in /  1011.4 hPa SW 1.4 mph /  2.3 km/h 4.6 mph /  7.4 km/h 96 % 0.00 in /  0 mm
09:20 73.6 °F /  23.1 °C 72.4 °F /  22.4 °C 29.83 in /  1010 hPa SSE 0.7 mph /  1.1 km/h 3.5 mph /  5.6 km/h 96 % 0.00 in /  0 mm
09:25 73.7 °F /  23.2 °C 72.5 °F /  22.5 °C 29.75 in /  1007.3 hPa WSW 1.3 mph /  2.1 km/h 3.5 mph /  5.6 km/h 96 % 0.00 in /  0 mm
09:30 73.8 °F /  23.2 °C 72.6 °F /  22.6 °C 29.73 in /  1006.7 hPa SSW 2.4 mph /  3.9 km/h 6.9 mph /  11.1 km/h 96 % 0.00 in /  0 mm
09:35 73.8 °F /  23.2 °C 72.6 °F /  22.6 °C 29.63 in /  1003.3 hPa South 0.8 mph /  1.3 km/h 1.2 mph /  1.9 km/h 96 % 0.00 in /  0 mm
09:40 73.9 °F /  23.3 °C 72.7 °F /  22.6 °C 29.62 in /  1002.9 hPa SSW 3.3 mph /  5.3 km/h 4.0 mph /  6.4 km/h 96 % 0.00 in /  0 mm
09:46 73.9 °F /  23.3 °C 72.4 °F /  22.4 °C 29.73 in /  1006.7 hPa South 2.0 mph /  3.2 km/h 13.0 mph /  20.9 km/h 95 % 0.00 in /  0 mm
09:51 74.0 °F /  23.3 °C 72.5 °F /  22.5 °C 29.59 in /  1001.9 hPa South 3.0 mph /  4.8 km/h 9.0 mph /  14.5 km/h 95 % 0.00 in /  0 mm
09:56 74.1 °F /  23.4 °C 72.6 °F /  22.6 °C 29.75 in /  1007.3 hPa South 1.0 mph /  1.6 km/h 12.0 mph /  19.3 km/h 95 % 0.00 in /  0 mm
10:01 74.1 °F /  23.4 °C 72.6 °F /  22.6 °C 29.67 in /  1004.6 hPa SSW 0.4 mph /  0.6 km/h 3.5 mph /  5.6 km/h 95 % 0.00 in /  0 mm
10:06 74.2 °F /  23.4 °C 72.4 °F /  22.4 °C 29.73 in /  1006.7 hPa South 0.5 mph /  0.8 km/h 3.5 mph /  5.6 km/h 94 % 0.00 in /  0 mm
10:11 74.2 °F /  23.4 °C 72.4 °F /  22.4 °C 29.67 in /  1004.6 hPa SSW 1.2 mph /  1.9 km/h 5.8 mph /  9.3 km/h 94 % 0.00 in /  0 mm
10:16 74.3 °F /  23.5 °C 72.5 °F /  22.5 °C 29.68 in /  1005 hPa South 1.0 mph /  1.6 km/h 5.0 mph /  8 km/h 94 % 0.00 in /  0 mm
10:21 74.3 °F /  23.5 °C 72.5 °F /  22.5 °C 29.68 in /  1005 hPa South 2.0 mph /  3.2 km/h 9.0 mph /  14.5 km/h 94 % 0.00 in /  0 mm
10:26 74.3 °F /  23.5 °C 72.5 °F /  22.5 °C 29.63 in /  1003.3 hPa SSE 1.0 mph /  1.6 km/h 8.0 mph /  12.9 km/h 94 % 0.00 in /  0 mm
10:31 74.3 °F /  23.5 °C 72.5 °F /  22.5 °C 29.68 in /  1005 hPa South 5.0 mph /  8 km/h 12.0 mph /  19.3 km/h 94 % 0.00 in /  0 mm
10:36 74.4 °F /  23.6 °C 72.2 °F /  22.3 °C 29.73 in /  1006.7 hPa South 7.0 mph /  11.3 km/h 14.0 mph /  22.5 km/h 93 % 0.00 in /  0 mm
10:41 74.4 °F /  23.6 °C 72.6 °F /  22.6 °C 29.91 in /  1012.8 hPa South 2.0 mph /  3.2 km/h 8.0 mph /  12.9 km/h 94 % 0.00 in /  0 mm
10:46 74.5 °F /  23.6 °C 72.3 °F /  22.4 °C 29.88 in /  1011.7 hPa South 1.0 mph /  1.6 km/h 5.0 mph /  8 km/h 93 % 0.00 in /  0 mm
10:51 74.5 °F /  23.6 °C 72.3 °F /  22.4 °C 29.86 in /  1011.1 hPa South 1.0 mph /  1.6 km/h 5.0 mph /  8 km/h 93 % 0.00 in /  0 mm
10:56 74.6 °F /  23.7 °C 72.4 °F /  22.4 °C 29.90 in /  1012.4 hPa South 3.0 mph /  4.8 km/h 20.0 mph /  32.2 km/h 93 % 0.00 in /  0 mm
11:01 74.6 °F /  23.7 °C 72.4 °F /  22.4 °C 29.85 in /  1010.7 hPa South 3.1 mph /  5 km/h 5.8 mph /  9.3 km/h 93 % 0.00 in /  0 mm
11:06 74.7 °F /  23.7 °C 72.5 °F /  22.5 °C 29.89 in /  1012.1 hPa South 3.1 mph /  5 km/h 10.4 mph /  16.7 km/h 93 % 0.00 in /  0 mm
11:11 74.7 °F /  23.7 °C 72.5 °F /  22.5 °C 29.89 in /  1012.1 hPa SE 2.0 mph /  3.2 km/h 9.2 mph /  14.8 km/h 93 % 0.00 in /  0 mm
11:16 74.6 °F /  23.7 °C 72.4 °F /  22.4 °C 29.90 in /  1012.4 hPa SSW 2.3 mph /  3.7 km/h 6.9 mph /  11.1 km/h 93 % 0.00 in /  0 mm
11:21 74.6 °F /  23.7 °C 72.8 °F /  22.7 °C 29.88 in /  1011.7 hPa SE 1.2 mph /  1.9 km/h 9.0 mph /  14.5 km/h 94 % 0.01 in /  0.25 mm
11:26 74.5 °F /  23.6 °C 72.7 °F /  22.6 °C 29.86 in /  1011.1 hPa SSE 7.9 mph /  12.7 km/h 11.5 mph /  18.5 km/h 94 % 0.01 in /  0.25 mm
11:31 74.4 °F /  23.6 °C 72.6 °F /  22.6 °C 29.88 in /  1011.7 hPa SSE 2.2 mph /  3.5 km/h 8.1 mph /  13 km/h 94 % 0.01 in /  0.25 mm
11:36 74.4 °F /  23.6 °C 72.6 °F /  22.6 °C 29.86 in /  1011.1 hPa South 0.4 mph /  0.6 km/h 3.5 mph /  5.6 km/h 94 % 0.01 in /  0.25 mm
11:41 74.2 °F /  23.4 °C 72.7 °F /  22.6 °C 29.87 in /  1011.4 hPa SSE 3.8 mph /  6.1 km/h 9.2 mph /  14.8 km/h 95 % 0.01 in /  0.25 mm
11:46 74.2 °F /  23.4 °C 72.7 °F /  22.6 °C 29.87 in /  1011.4 hPa SSE 2.4 mph /  3.9 km/h 6.9 mph /  11.1 km/h 95 % 0.01 in /  0.25 mm
11:51 74.2 °F /  23.4 °C 72.7 °F /  22.6 °C 29.74 in /  1007 hPa SSW 0.9 mph /  1.4 km/h 3.5 mph /  5.6 km/h 95 % 0.02 in /  0.51 mm
11:56 74.2 °F /  23.4 °C 72.7 °F /  22.6 °C 29.87 in /  1011.4 hPa South 1.3 mph /  2.1 km/h 3.5 mph /  5.6 km/h 95 % 0.02 in /  0.51 mm
12:01 74.2 °F /  23.4 °C 72.7 °F /  22.6 °C 29.88 in /  1011.7 hPa SSW 0.9 mph /  1.4 km/h 3.5 mph /  5.6 km/h 95 % 0.02 in /  0.51 mm
12:06 74.2 °F /  23.4 °C 72.7 °F /  22.6 °C 29.86 in /  1011.1 hPa SSE 2.9 mph /  4.7 km/h 12.7 mph /  20.4 km/h 95 % 0.02 in /  0.51 mm
12:11 74.2 °F /  23.4 °C 72.7 °F /  22.6 °C 29.87 in /  1011.4 hPa South 2.9 mph /  4.7 km/h 6.9 mph /  11.1 km/h 95 % 0.02 in /  0.51 mm
12:16 74.3 °F /  23.5 °C 73.1 °F /  22.8 °C 29.85 in /  1010.7 hPa SSE 4.5 mph /  7.2 km/h 7.0 mph /  11.3 km/h 96 % 0.02 in /  0.51 mm
12:21 74.3 °F /  23.5 °C 73.1 °F /  22.8 °C 29.85 in /  1010.7 hPa SSW 2.4 mph /  3.9 km/h 6.9 mph /  11.1 km/h 96 % 0.01 in /  0.25 mm
12:26 74.4 °F /  23.6 °C 73.2 °F /  22.9 °C 29.84 in /  1010.4 hPa SSW 4.6 mph /  7.4 km/h 9.2 mph /  14.8 km/h 96 % 0.01 in /  0.25 mm
12:31 74.5 °F /  23.6 °C 73.3 °F /  22.9 °C 29.84 in /  1010.4 hPa SW 4.0 mph /  6.4 km/h 8.1 mph /  13 km/h 96 % 0.01 in /  0.25 mm
12:36 74.5 °F /  23.6 °C 73.3 °F /  22.9 °C 29.85 in /  1010.7 hPa SSW 2.2 mph /  3.5 km/h 6.9 mph /  11.1 km/h 96 % 0.01 in /  0.25 mm
12:41 74.5 °F /  23.6 °C 73.0 °F /  22.8 °C 29.83 in /  1010 hPa South 2.6 mph /  4.2 km/h 9.2 mph /  14.8 km/h 95 % 0.01 in /  0.25 mm
12:46 74.5 °F /  23.6 °C 73.0 °F /  22.8 °C 29.80 in /  1009 hPa South 2.0 mph /  3.2 km/h 9.2 mph /  14.8 km/h 95 % 0.01 in /  0.25 mm
12:51 74.5 °F /  23.6 °C 73.0 °F /  22.8 °C 29.74 in /  1007 hPa SSW 2.7 mph /  4.3 km/h 8.1 mph /  13 km/h 95 % 0.00 in /  0 mm
12:56 74.5 °F /  23.6 °C 73.0 °F /  22.8 °C 29.67 in /  1004.6 hPa South 4.8 mph /  7.7 km/h 6.9 mph /  11.1 km/h 95 % 0.01 in /  0.25 mm
13:01 74.5 °F /  23.6 °C 73.0 °F /  22.8 °C 29.68 in /  1005 hPa South 2.4 mph /  3.9 km/h 5.8 mph /  9.3 km/h 95 % 0.01 in /  0.25 mm
13:06 74.4 °F /  23.6 °C 72.9 °F /  22.7 °C 29.68 in /  1005 hPa SE 1.2 mph /  1.9 km/h 4.0 mph /  6.4 km/h 95 % 0.01 in /  0.25 mm
13:11 74.4 °F /  23.6 °C 72.9 °F /  22.7 °C 29.72 in /  1006.3 hPa SSW 3.0 mph /  4.8 km/h 4.6 mph /  7.4 km/h 95 % 0.01 in /  0.25 mm
13:16 74.3 °F /  23.5 °C 72.8 °F /  22.7 °C 29.63 in /  1003.3 hPa South 3.3 mph /  5.3 km/h 9.2 mph /  14.8 km/h 95 % 0.01 in /  0.25 mm
13:21 74.2 °F /  23.4 °C 72.7 °F /  22.6 °C 29.66 in /  1004.3 hPa SW 4.5 mph /  7.2 km/h 8.0 mph /  12.9 km/h 95 % 0.02 in /  0.51 mm
13:26 74.2 °F /  23.4 °C 72.7 °F /  22.6 °C 29.52 in /  999.5 hPa SW 1.4 mph /  2.3 km/h 3.5 mph /  5.6 km/h 95 % 0.02 in /  0.51 mm
13:31 74.2 °F /  23.4 °C 72.7 °F /  22.6 °C 29.61 in /  1002.6 hPa South 4.1 mph /  6.6 km/h 5.8 mph /  9.3 km/h 95 % 0.02 in /  0.51 mm
13:36 74.1 °F /  23.4 °C 72.6 °F /  22.6 °C 29.57 in /  1001.2 hPa South 2.3 mph /  3.7 km/h 6.9 mph /  11.1 km/h 95 % 0.02 in /  0.51 mm
13:41 74.1 °F /  23.4 °C 72.6 °F /  22.6 °C 29.68 in /  1005 hPa South 3.7 mph /  6 km/h 6.9 mph /  11.1 km/h 95 % 0.02 in /  0.51 mm
13:46 74.0 °F /  23.3 °C 72.5 °F /  22.5 °C 29.69 in /  1005.3 hPa South 6.9 mph /  11.1 km/h 11.0 mph /  17.7 km/h 95 % 0.03 in /  0.76 mm
13:49 74.0 °F /  23.3 °C 72.5 °F /  22.5 °C 29.64 in /  1003.6 hPa South 3.9 mph /  6.3 km/h 6.9 mph /  11.1 km/h 95 % 0.03 in /  0.76 mm
13:54 73.9 °F /  23.3 °C 72.4 °F /  22.4 °C 29.73 in /  1006.7 hPa SSW 1.7 mph /  2.7 km/h 5.8 mph /  9.3 km/h 95 % 0.03 in /  0.76 mm
13:59 73.9 °F /  23.3 °C 72.7 °F /  22.6 °C 29.73 in /  1006.7 hPa South 4.1 mph /  6.6 km/h 16.1 mph /  25.9 km/h 96 % 0.02 in /  0.51 mm
14:04 73.9 °F /  23.3 °C 72.7 °F /  22.6 °C 29.74 in /  1007 hPa South 4.3 mph /  6.9 km/h 5.8 mph /  9.3 km/h 96 % 0.03 in /  0.76 mm
14:09 73.8 °F /  23.2 °C 72.6 °F /  22.6 °C 29.72 in /  1006.3 hPa SSW 3.4 mph /  5.5 km/h 8.1 mph /  13 km/h 96 % 0.04 in /  1.02 mm
14:14 73.7 °F /  23.2 °C 72.5 °F /  22.5 °C 29.64 in /  1003.6 hPa SSW 3.5 mph /  5.6 km/h 8.1 mph /  13 km/h 96 % 0.05 in /  1.27 mm
14:19 73.6 °F /  23.1 °C 72.4 °F /  22.4 °C 29.68 in /  1005 hPa SE 5.1 mph /  8.2 km/h 9.2 mph /  14.8 km/h 96 % 0.07 in /  1.78 mm
14:24 73.4 °F /  23 °C 72.2 °F /  22.3 °C 29.72 in /  1006.3 hPa South 5.1 mph /  8.2 km/h 12.0 mph /  19.3 km/h 96 % 0.07 in /  1.78 mm
14:29 73.1 °F /  22.8 °C 71.6 °F /  22 °C 29.73 in /  1006.7 hPa SW 5.1 mph /  8.2 km/h 10.4 mph /  16.7 km/h 95 % 0.09 in /  2.29 mm
14:35 73.0 °F /  22.8 °C 71.5 °F /  21.9 °C 29.68 in /  1005 hPa South 4.9 mph /  7.9 km/h 13.0 mph /  20.9 km/h 95 % 0.10 in /  2.54 mm
14:40 72.8 °F /  22.7 °C 71.3 °F /  21.8 °C 29.68 in /  1005 hPa SSW 5.3 mph /  8.5 km/h 11.5 mph /  18.5 km/h 95 % 0.11 in /  2.79 mm
14:45 72.7 °F /  22.6 °C 71.2 °F /  21.8 °C 29.71 in /  1006 hPa South 3.1 mph /  5 km/h 9.2 mph /  14.8 km/h 95 % 0.12 in /  3.05 mm
14:50 72.6 °F /  22.6 °C 71.4 °F /  21.9 °C 29.54 in /  1000.2 hPa SW 3.5 mph /  5.6 km/h 10.4 mph /  16.7 km/h 96 % 0.13 in /  3.3 mm
14:51 72.6 °F /  22.6 °C 71.4 °F /  21.9 °C 29.61 in /  1002.6 hPa SSW 4.6 mph /  7.4 km/h 11.5 mph /  18.5 km/h 96 % 0.13 in /  3.3 mm
14:56 72.6 °F /  22.6 °C 71.4 °F /  21.9 °C 29.70 in /  1005.6 hPa South 6.2 mph /  10 km/h 11.5 mph /  18.5 km/h 96 % 0.14 in /  3.56 mm
15:01 72.5 °F /  22.5 °C 71.3 °F /  21.8 °C 29.69 in /  1005.3 hPa South 5.9 mph /  9.5 km/h 16.1 mph /  25.9 km/h 96 % 0.15 in /  3.81 mm
15:06 72.4 °F /  22.4 °C 71.2 °F /  21.8 °C 29.55 in /  1000.6 hPa SW 5.3 mph /  8.5 km/h 12.7 mph /  20.4 km/h 96 % 0.15 in /  3.81 mm
15:11 72.3 °F /  22.4 °C 71.1 °F /  21.7 °C 29.68 in /  1005 hPa SSE 3.6 mph /  5.8 km/h 6.9 mph /  11.1 km/h 96 % 0.15 in /  3.81 mm
15:16 72.2 °F /  22.3 °C 71.0 °F /  21.7 °C 29.70 in /  1005.6 hPa SW 3.0 mph /  4.8 km/h 8.1 mph /  13 km/h 96 % 0.13 in /  3.3 mm
15:21 72.2 °F /  22.3 °C 71.0 °F /  21.7 °C 29.62 in /  1002.9 hPa SSW 3.7 mph /  6 km/h 5.0 mph /  8 km/h 96 % 0.13 in /  3.3 mm
15:26 72.2 °F /  22.3 °C 71.0 °F /  21.7 °C 29.67 in /  1004.6 hPa WSW 2.0 mph /  3.2 km/h 8.0 mph /  12.9 km/h 96 % 0.11 in /  2.79 mm
15:31 72.2 °F /  22.3 °C 71.0 °F /  21.7 °C 29.62 in /  1002.9 hPa SSW 5.3 mph /  8.5 km/h 11.5 mph /  18.5 km/h 96 % 0.10 in /  2.54 mm
15:36 72.3 °F /  22.4 °C 71.1 °F /  21.7 °C 29.69 in /  1005.3 hPa SSE 4.7 mph /  7.6 km/h 11.5 mph /  18.5 km/h 96 % 0.09 in /  2.29 mm
15:41 72.4 °F /  22.4 °C 71.5 °F /  21.9 °C 29.56 in /  1000.9 hPa SW 4.4 mph /  7.1 km/h 6.9 mph /  11.1 km/h 97 % 0.07 in /  1.78 mm
15:46 72.5 °F /  22.5 °C 71.6 °F /  22 °C 29.65 in /  1003.9 hPa SSW 5.8 mph /  9.3 km/h 11.5 mph /  18.5 km/h 97 % 0.06 in /  1.52 mm
15:51 72.5 °F /  22.5 °C 71.6 °F /  22 °C 29.56 in /  1000.9 hPa SSW 6.1 mph /  9.8 km/h 9.2 mph /  14.8 km/h 97 % 0.05 in /  1.27 mm
15:56 72.6 °F /  22.6 °C 71.7 °F /  22.1 °C 29.67 in /  1004.6 hPa SE 5.9 mph /  9.5 km/h 11.5 mph /  18.5 km/h 97 % 0.04 in /  1.02 mm
16:01 72.6 °F /  22.6 °C 71.7 °F /  22.1 °C 29.70 in /  1005.6 hPa SE 4.8 mph /  7.7 km/h 11.5 mph /  18.5 km/h 97 % 0.03 in /  0.76 mm
16:06 72.6 °F /  22.6 °C 71.7 °F /  22.1 °C 29.68 in /  1005 hPa SSW 5.7 mph /  9.2 km/h 11.5 mph /  18.5 km/h 97 % 0.02 in /  0.51 mm
16:11 72.6 °F /  22.6 °C 71.7 °F /  22.1 °C 29.67 in /  1004.6 hPa SSW 5.2 mph /  8.4 km/h 8.1 mph /  13 km/h 97 % 0.01 in /  0.25 mm
16:16 72.6 °F /  22.6 °C 71.7 °F /  22.1 °C 29.71 in /  1006 hPa SSE 5.3 mph /  8.5 km/h 11.5 mph /  18.5 km/h 97 % 0.02 in /  0.51 mm
16:21 72.5 °F /  22.5 °C 71.6 °F /  22 °C 29.71 in /  1006 hPa South 3.8 mph /  6.1 km/h 10.0 mph /  16.1 km/h 97 % 0.01 in /  0.25 mm
16:26 72.5 °F /  22.5 °C 71.6 °F /  22 °C 29.72 in /  1006.3 hPa South 4.5 mph /  7.2 km/h 9.2 mph /  14.8 km/h 97 % 0.01 in /  0.25 mm
16:31 72.5 °F /  22.5 °C 71.6 °F /  22 °C 29.69 in /  1005.3 hPa SSW 2.7 mph /  4.3 km/h 5.0 mph /  8 km/h 97 % 0.01 in /  0.25 mm
16:36 72.5 °F /  22.5 °C 71.6 °F /  22 °C 29.63 in /  1003.3 hPa SSW 2.5 mph /  4 km/h 7.0 mph /  11.3 km/h 97 % 0.01 in /  0.25 mm
16:41 72.5 °F /  22.5 °C 71.6 °F /  22 °C 29.68 in /  1005 hPa South 1.6 mph /  2.6 km/h 3.5 mph /  5.6 km/h 97 % 0.01 in /  0.25 mm
16:46 72.5 °F /  22.5 °C 71.6 °F /  22 °C 29.75 in /  1007.3 hPa SSW 3.6 mph /  5.8 km/h 11.5 mph /  18.5 km/h 97 % 0.01 in /  0.25 mm
16:51 72.5 °F /  22.5 °C 71.6 °F /  22 °C 29.74 in /  1007 hPa South 3.0 mph /  4.8 km/h 6.9 mph /  11.1 km/h 97 % 0.01 in /  0.25 mm
16:56 72.5 °F /  22.5 °C 71.6 °F /  22 °C 29.75 in /  1007.3 hPa SSW 4.4 mph /  7.1 km/h 6.9 mph /  11.1 km/h 97 % 0.01 in /  0.25 mm
17:01 72.5 °F /  22.5 °C 71.6 °F /  22 °C 29.74 in /  1007 hPa SSW 1.1 mph /  1.8 km/h 6.9 mph /  11.1 km/h 97 % 0.01 in /  0.25 mm
17:06 72.5 °F /  22.5 °C 71.6 °F /  22 °C 29.73 in /  1006.7 hPa SSW 4.5 mph /  7.2 km/h 17.3 mph /  27.8 km/h 97 % 0.01 in /  0.25 mm
17:11 72.5 °F /  22.5 °C 71.6 °F /  22 °C 29.67 in /  1004.6 hPa SSW 1.2 mph /  1.9 km/h 6.9 mph /  11.1 km/h 97 % 0.01 in /  0.25 mm
17:17 72.6 °F /  22.6 °C 71.7 °F /  22.1 °C 29.75 in /  1007.3 hPa SSW 4.9 mph /  7.9 km/h 11.5 mph /  18.5 km/h 97 % 0.00 in /  0 mm
17:22 72.6 °F /  22.6 °C 71.7 °F /  22.1 °C 29.73 in /  1006.7 hPa South 2.2 mph /  3.5 km/h 12.7 mph /  20.4 km/h 97 % 0.00 in /  0 mm
17:27 72.6 °F /  22.6 °C 71.7 °F /  22.1 °C 29.72 in /  1006.3 hPa SSW 3.8 mph /  6.1 km/h 6.9 mph /  11.1 km/h 97 % 0.00 in /  0 mm
17:32 72.6 °F /  22.6 °C 71.7 °F /  22.1 °C 29.62 in /  1002.9 hPa SSW 4.8 mph /  7.7 km/h 6.9 mph /  11.1 km/h 97 % 0.00 in /  0 mm
17:37 72.6 °F /  22.6 °C 71.7 °F /  22.1 °C 29.66 in /  1004.3 hPa SSW 2.3 mph /  3.7 km/h 8.1 mph /  13 km/h 97 % 0.00 in /  0 mm
17:42 72.6 °F /  22.6 °C 71.7 °F /  22.1 °C 29.55 in /  1000.6 hPa SSE 1.9 mph /  3.1 km/h 6.9 mph /  11.1 km/h 97 % 0.00 in /  0 mm
17:47 72.6 °F /  22.6 °C 71.7 °F /  22.1 °C 29.63 in /  1003.3 hPa SSW 3.7 mph /  6 km/h 5.0 mph /  8 km/h 97 % 0.00 in /  0 mm
17:52 72.6 °F /  22.6 °C 71.7 °F /  22.1 °C 29.59 in /  1001.9 hPa SSE 2.5 mph /  4 km/h 5.0 mph /  8 km/h 97 % 0.00 in /  0 mm
17:57 72.6 °F /  22.6 °C 71.7 °F /  22.1 °C 29.60 in /  1002.3 hPa SSW 5.3 mph /  8.5 km/h 8.1 mph /  13 km/h 97 % 0.00 in /  0 mm
18:02 72.6 °F /  22.6 °C 71.7 °F /  22.1 °C 29.74 in /  1007 hPa SSW 5.4 mph /  8.7 km/h 10.4 mph /  16.7 km/h 97 % 0.00 in /  0 mm
18:07 72.6 °F /  22.6 °C 71.7 °F /  22.1 °C 29.69 in /  1005.3 hPa SSW 1.5 mph /  2.4 km/h 4.0 mph /  6.4 km/h 97 % 0.00 in /  0 mm
18:12 72.6 °F /  22.6 °C 71.7 °F /  22.1 °C 29.71 in /  1006 hPa SSW 2.6 mph /  4.2 km/h 5.8 mph /  9.3 km/h 97 % 0.00 in /  0 mm
18:27 72.7 °F /  22.6 °C 71.8 °F /  22.1 °C 29.77 in /  1008 hPa South 1.1 mph /  1.8 km/h 3.5 mph /  5.6 km/h 97 % 0.00 in /  0 mm
18:32 72.7 °F /  22.6 °C 71.8 °F /  22.1 °C 29.65 in /  1003.9 hPa South 2.9 mph /  4.7 km/h 8.1 mph /  13 km/h 97 % 0.00 in /  0 mm
18:37 72.7 °F /  22.6 °C 71.8 °F /  22.1 °C 29.68 in /  1005 hPa South 3.3 mph /  5.3 km/h 5.8 mph /  9.3 km/h 97 % 0.00 in /  0 mm
18:42 72.7 °F /  22.6 °C 71.8 °F /  22.1 °C 29.69 in /  1005.3 hPa SSW 1.5 mph /  2.4 km/h 2.3 mph /  3.7 km/h 97 % 0.00 in /  0 mm
18:48 72.7 °F /  22.6 °C 71.8 °F /  22.1 °C 29.70 in /  1005.6 hPa SSW 0.7 mph /  1.1 km/h 3.5 mph /  5.6 km/h 97 % 0.00 in /  0 mm
18:53 72.7 °F /  22.6 °C 71.8 °F /  22.1 °C 29.73 in /  1006.7 hPa South 1.2 mph /  1.9 km/h 5.8 mph /  9.3 km/h 97 % 0.00 in /  0 mm
18:57 72.8 °F /  22.7 °C 71.9 °F /  22.2 °C 29.71 in /  1006 hPa SSE 1.1 mph /  1.8 km/h 6.9 mph /  11.1 km/h 97 % 0.00 in /  0 mm
19:03 72.8 °F /  22.7 °C 71.9 °F /  22.2 °C 29.72 in /  1006.3 hPa SSW 2.7 mph /  4.3 km/h 5.0 mph /  8 km/h 97 % 0.00 in /  0 mm
19:08 72.8 °F /  22.7 °C 71.9 °F /  22.2 °C 29.64 in /  1003.6 hPa SE 2.5 mph /  4 km/h 4.6 mph /  7.4 km/h 97 % 0.00 in /  0 mm
19:12 72.8 °F /  22.7 °C 71.9 °F /  22.2 °C 29.69 in /  1005.3 hPa South 2.6 mph /  4.2 km/h 4.6 mph /  7.4 km/h 97 % 0.00 in /  0 mm
19:18 72.8 °F /  22.7 °C 71.9 °F /  22.2 °C 29.70 in /  1005.6 hPa SSE 1.8 mph /  2.9 km/h 3.5 mph /  5.6 km/h 97 % 0.00 in /  0 mm
19:23 72.7 °F /  22.6 °C 71.8 °F /  22.1 °C 29.72 in /  1006.3 hPa SSW 2.1 mph /  3.4 km/h 5.8 mph /  9.3 km/h 97 % 0.00 in /  0 mm
19:28 72.7 °F /  22.6 °C 71.8 °F /  22.1 °C 29.64 in /  1003.6 hPa South 2.1 mph /  3.4 km/h 5.8 mph /  9.3 km/h 97 % 0.00 in /  0 mm
19:33 72.7 °F /  22.6 °C 71.8 °F /  22.1 °C 29.73 in /  1006.7 hPa SSW 2.8 mph /  4.5 km/h 6.0 mph /  9.7 km/h 97 % 0.00 in /  0 mm
19:38 72.7 °F /  22.6 °C 71.8 °F /  22.1 °C 29.68 in /  1005 hPa South 2.3 mph /  3.7 km/h 6.9 mph /  11.1 km/h 97 % 0.00 in /  0 mm
19:43 72.7 °F /  22.6 °C 71.8 °F /  22.1 °C 29.70 in /  1005.6 hPa South 1.9 mph /  3.1 km/h 5.8 mph /  9.3 km/h 97 % 0.00 in /  0 mm
19:48 72.8 °F /  22.7 °C 71.9 °F /  22.2 °C 29.75 in /  1007.3 hPa SSW 1.5 mph /  2.4 km/h 4.6 mph /  7.4 km/h 97 % 0.00 in /  0 mm
19:53 72.8 °F /  22.7 °C 71.9 °F /  22.2 °C 29.73 in /  1006.7 hPa WSW 2.7 mph /  4.3 km/h 5.8 mph /  9.3 km/h 97 % 0.00 in /  0 mm
19:58 72.8 °F /  22.7 °C 71.9 °F /  22.2 °C 29.70 in /  1005.6 hPa SSW 1.4 mph /  2.3 km/h 6.9 mph /  11.1 km/h 97 % 0.00 in /  0 mm
20:03 72.9 °F /  22.7 °C 72.0 °F /  22.2 °C 29.66 in /  1004.3 hPa South 3.4 mph /  5.5 km/h 6.9 mph /  11.1 km/h 97 % 0.00 in /  0 mm
20:13 72.9 °F /  22.7 °C 72.0 °F /  22.2 °C 29.63 in /  1003.3 hPa SW 1.1 mph /  1.8 km/h 3.0 mph /  4.8 km/h 97 % 0.00 in /  0 mm
20:18 72.9 °F /  22.7 °C 72.0 °F /  22.2 °C 29.69 in /  1005.3 hPa SW 2.2 mph /  3.5 km/h 5.0 mph /  8 km/h 97 % 0.00 in /  0 mm
20:23 73.0 °F /  22.8 °C 72.1 °F /  22.3 °C 29.56 in /  1000.9 hPa SSW 0.9 mph /  1.4 km/h 3.5 mph /  5.6 km/h 97 % 0.00 in /  0 mm
20:28 73.0 °F /  22.8 °C 72.1 °F /  22.3 °C 29.75 in /  1007.3 hPa SSE 1.0 mph /  1.6 km/h 3.0 mph /  4.8 km/h 97 % 0.00 in /  0 mm
20:33 73.1 °F /  22.8 °C 72.2 °F /  22.3 °C 29.77 in /  1008 hPa South 2.2 mph /  3.5 km/h 4.6 mph /  7.4 km/h 97 % 0.00 in /  0 mm
20:38 73.1 °F /  22.8 °C 72.2 °F /  22.3 °C 29.75 in /  1007.3 hPa SSW 1.8 mph /  2.9 km/h 4.0 mph /  6.4 km/h 97 % 0.00 in /  0 mm
20:43 73.2 °F /  22.9 °C 72.3 °F /  22.4 °C 29.78 in /  1008.4 hPa SSW 3.7 mph /  6 km/h 6.9 mph /  11.1 km/h 97 % 0.00 in /  0 mm
20:48 73.2 °F /  22.9 °C 72.3 °F /  22.4 °C 29.78 in /  1008.4 hPa SW 1.1 mph /  1.8 km/h 4.0 mph /  6.4 km/h 97 % 0.00 in /  0 mm
20:53 73.3 °F /  22.9 °C 72.4 °F /  22.4 °C 29.78 in /  1008.4 hPa South 3.3 mph /  5.3 km/h 4.6 mph /  7.4 km/h 97 % 0.00 in /  0 mm
20:58 73.3 °F /  22.9 °C 72.4 °F /  22.4 °C 29.79 in /  1008.7 hPa SSW 1.3 mph /  2.1 km/h 3.5 mph /  5.6 km/h 97 % 0.00 in /  0 mm
21:03 73.3 °F /  22.9 °C 72.4 °F /  22.4 °C 29.66 in /  1004.3 hPa SSW 2.4 mph /  3.9 km/h 4.6 mph /  7.4 km/h 97 % 0.00 in /  0 mm
21:08 73.3 °F /  22.9 °C 72.4 °F /  22.4 °C 29.68 in /  1005 hPa SSW 3.4 mph /  5.5 km/h 5.8 mph /  9.3 km/h 97 % 0.00 in /  0 mm
21:13 73.4 °F /  23 °C 72.5 °F /  22.5 °C 29.55 in /  1000.6 hPa West 1.6 mph /  2.6 km/h 3.5 mph /  5.6 km/h 97 % 0.00 in /  0 mm
21:18 73.4 °F /  23 °C 72.5 °F /  22.5 °C 29.64 in /  1003.6 hPa WSW 0.7 mph /  1.1 km/h 3.5 mph /  5.6 km/h 97 % 0.00 in /  0 mm
21:23 73.4 °F /  23 °C 72.5 °F /  22.5 °C 29.65 in /  1003.9 hPa SSW 1.2 mph /  1.9 km/h 2.3 mph /  3.7 km/h 97 % 0.00 in /  0 mm
21:28 73.5 °F /  23.1 °C 72.6 °F /  22.6 °C 29.74 in /  1007 hPa South 0.7 mph /  1.1 km/h 2.3 mph /  3.7 km/h 97 % 0.00 in /  0 mm
21:33 73.4 °F /  23 °C 72.5 °F /  22.5 °C 29.67 in /  1004.6 hPa SSW 3.2 mph /  5.1 km/h 5.0 mph /  8 km/h 97 % 0.00 in /  0 mm
21:38 73.5 °F /  23.1 °C 72.6 °F /  22.6 °C 29.68 in /  1005 hPa SSW 2.5 mph /  4 km/h 2.5 mph /  4 km/h 97 % 0.00 in /  0 mm
21:44 73.5 °F /  23.1 °C 72.6 °F /  22.6 °C 29.67 in /  1004.6 hPa SW 0.9 mph /  1.4 km/h 4.6 mph /  7.4 km/h 97 % 0.00 in /  0 mm
21:49 73.5 °F /  23.1 °C 72.6 °F /  22.6 °C 29.68 in /  1005 hPa SSW 1.3 mph /  2.1 km/h 3.5 mph /  5.6 km/h 97 % 0.00 in /  0 mm
21:54 73.5 °F /  23.1 °C 72.6 °F /  22.6 °C 29.74 in /  1007 hPa WSW 0.7 mph /  1.1 km/h 2.3 mph /  3.7 km/h 97 % 0.00 in /  0 mm
21:59 73.5 °F /  23.1 °C 72.6 °F /  22.6 °C 29.66 in /  1004.3 hPa South 1.3 mph /  2.1 km/h 4.6 mph /  7.4 km/h 97 % 0.00 in /  0 mm
22:11 73.5 °F /  23.1 °C 72.6 °F /  22.6 °C 29.75 in /  1007.3 hPa SSW 2.9 mph /  4.7 km/h 4.0 mph /  6.4 km/h 97 % 0.00 in /  0 mm
22:16 73.5 °F /  23.1 °C 72.6 °F /  22.6 °C 29.67 in /  1004.6 hPa SW 3.4 mph /  5.5 km/h 4.6 mph /  7.4 km/h 97 % 0.00 in /  0 mm
22:26 73.5 °F /  23.1 °C 72.6 °F /  22.6 °C 29.71 in /  1006 hPa South 1.4 mph /  2.3 km/h 4.0 mph /  6.4 km/h 97 % 0.00 in /  0 mm
22:31 73.5 °F /  23.1 °C 72.6 °F /  22.6 °C 29.72 in /  1006.3 hPa SSW 2.6 mph /  4.2 km/h 4.6 mph /  7.4 km/h 97 % 0.00 in /  0 mm
22:36 73.5 °F /  23.1 °C 72.6 °F /  22.6 °C 29.66 in /  1004.3 hPa SW 3.1 mph /  5 km/h 8.1 mph /  13 km/h 97 % 0.00 in /  0 mm
22:41 73.4 °F /  23 °C 72.5 °F /  22.5 °C 29.68 in /  1005 hPa SW 3.9 mph /  6.3 km/h 5.8 mph /  9.3 km/h 97 % 0.00 in /  0 mm
22:46 73.4 °F /  23 °C 72.5 °F /  22.5 °C 29.70 in /  1005.6 hPa SW 1.4 mph /  2.3 km/h 6.0 mph /  9.7 km/h 97 % 0.00 in /  0 mm
22:56 73.4 °F /  23 °C 72.5 °F /  22.5 °C 29.70 in /  1005.6 hPa SSW 1.6 mph /  2.6 km/h 3.5 mph /  5.6 km/h 97 % 0.00 in /  0 mm
23:01 73.3 °F /  22.9 °C 72.4 °F /  22.4 °C 29.61 in /  1002.6 hPa WSW 0.3 mph /  0.5 km/h 1.2 mph /  1.9 km/h 97 % 0.00 in /  0 mm
23:06 73.3 °F /  22.9 °C 72.4 °F /  22.4 °C 29.72 in /  1006.3 hPa SSW 0.3 mph /  0.5 km/h 2.3 mph /  3.7 km/h 97 % 0.00 in /  0 mm
23:07 73.3 °F /  22.9 °C 72.4 °F /  22.4 °C 29.57 in /  1001.2 hPa SSW 1.4 mph /  2.3 km/h 5.0 mph /  8 km/h 97 % 0.00 in /  0 mm
23:12 73.3 °F /  22.9 °C 72.4 °F /  22.4 °C 29.73 in /  1006.7 hPa SW 0.9 mph /  1.4 km/h 2.3 mph /  3.7 km/h 97 % 0.00 in /  0 mm
23:17 73.3 °F /  22.9 °C 72.4 °F /  22.4 °C 29.64 in /  1003.6 hPa SSW 1.5 mph /  2.4 km/h 3.5 mph /  5.6 km/h 97 % 0.00 in /  0 mm
23:19 73.3 °F /  22.9 °C 72.4 °F /  22.4 °C 29.60 in /  1002.3 hPa WSW 2.5 mph /  4 km/h 5.8 mph /  9.3 km/h 97 % 0.00 in /  0 mm
23:21 73.3 °F /  22.9 °C 72.4 °F /  22.4 °C 29.62 in /  1002.9 hPa WSW 1.8 mph /  2.9 km/h 3.5 mph /  5.6 km/h 97 % 0.00 in /  0 mm
23:26 73.3 °F /  22.9 °C 72.4 °F /  22.4 °C 29.58 in /  1001.6 hPa SW 0.5 mph /  0.8 km/h 1.2 mph /  1.9 km/h 97 % 0.00 in /  0 mm
23:31 73.3 °F /  22.9 °C 72.4 °F /  22.4 °C 29.69 in /  1005.3 hPa WSW 0.2 mph /  0.3 km/h 2.3 mph /  3.7 km/h 97 % 0.00 in /  0 mm
23:36 73.3 °F /  22.9 °C 72.4 °F /  22.4 °C 29.77 in /  1008 hPa SW 1.3 mph /  2.1 km/h 2.3 mph /  3.7 km/h 97 % 0.00 in /  0 mm
23:41 73.4 °F /  23 °C 72.5 °F /  22.5 °C 29.74 in /  1007 hPa SW 3.8 mph /  6.1 km/h 8.1 mph /  13 km/h 97 % 0.00 in /  0 mm
23:47 73.4 °F /  23 °C 72.5 °F /  22.5 °C 29.75 in /  1007.3 hPa SW 2.2 mph /  3.5 km/h 6.9 mph /  11.1 km/h 97 % 0.00 in /  0 mm
23:51 73.5 °F /  23.1 °C 72.6 °F /  22.6 °C 29.62 in /  1002.9 hPa SW 3.2 mph /  5.1 km/h 4.6 mph /  7.4 km/h 97 % 0.00 in /  0 mm
Crab Meadow Weather
Compliments of Weather Underground - 3 mb

Script developed by  Jim McMurry - jmcmurry@mwt.net Adapted for the template by  Wim van der Kuil - Leuven-Template.eu

Barometer: A barometer is an instrument used to measure atmospheric pressure. A barometer is commonly used for weather prediction, as high air pressure in a region indicates fair weather while low pressure indicates that storms are more likely. When used in combination with wind observations, reasonably accurate short-term forecasts can be made.